PWSweather.com
Personal Weather Stations
Station Observations

SkegnessGB

Lat: 53.147585, Lon: 0.345774

Elevation: 18

Station Type: Fine Offset WH3080

http://www.skegnessweather.info/

High Low Average
Temperature 48.9°F9.4°C 36.7°F2.6°C 40.7°F4.8°C
Dew Point 41.5°F5.3°C 34.1°F1.2°C 37.7°F3.2°C
Winds 9.9 mph 15.9 kmh Calm Calm 3.0 mph SE4.8 kmh SE
Wind Gusts 13.3 mph21.4 kmh 0.7 mph1.1 kmh 4.0 mph6.4 kmh
Humidity 100% 66% 90%
Pressure 29.79 in1008.8 mb 29.45 in997.3 mb -
Precipitation 0.06 in1.5 mm - -
Hour Temp Dew Point Humidity Winds Wind Gusts Pressure Precip Precip Rate Daily Precip Total
12:00 AM 37.6°F3.1°C 37.6°F3.1°C 100% 9.8 mph NNE15.8 kmh NNE 10.1 mph16.3 kmh 29.45 in997.3 mb 0.00 in0.0 mm 0.00 in0.0 mm 0.00 in0.0 mm
12:10 AM 37.6°F3.1°C 37.6°F3.1°C 100% 8.4 mph NE13.5 kmh NE 9.1 mph14.6 kmh 29.45 in997.3 mb 0.01 in0.3 mm 0.06 in1.5 mm 0.01 in0.3 mm
12:20 AM 37.6°F3.1°C 37.6°F3.1°C 100% 9.9 mph N15.9 kmh N 11.8 mph19.0 kmh 29.46 in997.6 mb 0.01 in0.3 mm 0.00 in0.0 mm 0.01 in0.3 mm
12:30 AM 37.6°F3.1°C 37.6°F3.1°C 100% 9.7 mph E15.6 kmh E 13.3 mph21.4 kmh 29.46 in997.6 mb 0.01 in0.3 mm 0.00 in0.0 mm 0.01 in0.3 mm
12:40 AM 37.4°F3.0°C 37.4°F3.0°C 100% 9.3 mph NE15.0 kmh NE 13.3 mph21.4 kmh 29.46 in997.6 mb 0.01 in0.3 mm 0.00 in0.0 mm 0.01 in0.3 mm
12:50 AM 37.6°F3.1°C 37.6°F3.1°C 100% 8.2 mph NE13.2 kmh NE 8.4 mph13.5 kmh 29.47 in998.0 mb 0.02 in0.5 mm 0.06 in1.5 mm 0.02 in0.5 mm
01:00 AM 37.6°F3.1°C 37.6°F3.1°C 100% 7.2 mph NE11.6 kmh NE 7.6 mph12.2 kmh 29.48 in998.3 mb 0.02 in0.5 mm 0.00 in0.0 mm 0.02 in0.5 mm
01:10 AM 37.2°F2.9°C 37.2°F2.9°C 100% 6.4 mph N10.3 kmh N 10.1 mph16.3 kmh 29.48 in998.3 mb 0.01 in0.3 mm 0.00 in0.0 mm 0.02 in0.5 mm
01:20 AM 36.7°F2.6°C 36.7°F2.6°C 100% 8.2 mph ENE13.2 kmh ENE 10.8 mph17.4 kmh 29.48 in998.3 mb 0.01 in0.3 mm 0.00 in0.0 mm 0.02 in0.5 mm
01:30 AM 36.9°F2.7°C 36.9°F2.7°C 100% 7.4 mph NE11.9 kmh NE 7.6 mph12.2 kmh 29.49 in998.6 mb 0.02 in0.5 mm 0.06 in1.5 mm 0.04 in1.0 mm
01:40 AM 36.9°F2.7°C 36.9°F2.7°C 100% 5.9 mph NE9.5 kmh NE 6.6 mph10.6 kmh 29.49 in998.6 mb 0.02 in0.5 mm 0.00 in0.0 mm 0.04 in1.0 mm
01:50 AM 36.9°F2.7°C 36.9°F2.7°C 100% 6.3 mph NE10.1 kmh NE 7.6 mph12.2 kmh 29.49 in998.6 mb 0.01 in0.3 mm 0.00 in0.0 mm 0.04 in1.0 mm
02:00 AM 36.9°F2.7°C 36.9°F2.7°C 100% 3.8 mph NE6.1 kmh NE 5.9 mph9.5 kmh 29.50 in999.0 mb 0.02 in0.5 mm 0.01 in0.3 mm 0.05 in1.3 mm
02:10 AM 37.2°F2.9°C 37.2°F2.9°C 100% 2.6 mph NE4.2 kmh NE 5.9 mph9.5 kmh 29.49 in998.6 mb 0.02 in0.5 mm 0.00 in0.0 mm 0.05 in1.3 mm
02:20 AM 37.4°F3.0°C 37.4°F3.0°C 100% 3.3 mph NE5.3 kmh NE 5.9 mph9.5 kmh 29.50 in999.0 mb 0.01 in0.3 mm 0.00 in0.0 mm 0.05 in1.3 mm
02:30 AM 37.6°F3.1°C 37.6°F3.1°C 100% 3.9 mph ENE6.3 kmh ENE 4.2 mph6.8 kmh 29.50 in999.0 mb 0.01 in0.3 mm 0.00 in0.0 mm 0.05 in1.3 mm
02:40 AM 37.4°F3.0°C 37.4°F3.0°C 100% 3.3 mph ENE5.3 kmh ENE 4.9 mph7.9 kmh 29.51 in999.3 mb 0.01 in0.3 mm 0.00 in0.0 mm 0.05 in1.3 mm
02:50 AM 37.2°F2.9°C 37.2°F2.9°C 100% 3.1 mph E5.0 kmh E 4.9 mph7.9 kmh 29.50 in999.0 mb 0.01 in0.3 mm 0.00 in0.0 mm 0.05 in1.3 mm
03:00 AM 37.0°F2.8°C 37.0°F2.8°C 100% 2.2 mph E3.5 kmh E 4.2 mph6.8 kmh 29.51 in999.3 mb 0.00 in0.0 mm 0.00 in0.0 mm 0.05 in1.3 mm
03:10 AM 37.0°F2.8°C 37.0°F2.8°C 100% 1.6 mph NE2.6 kmh NE 2.5 mph4.0 kmh 29.52 in999.7 mb 0.00 in0.0 mm 0.00 in0.0 mm 0.05 in1.3 mm
03:20 AM 37.2°F2.9°C 37.2°F2.9°C 100% 2.8 mph ENE4.5 kmh ENE 4.9 mph7.9 kmh 29.52 in999.7 mb 0.00 in0.0 mm 0.00 in0.0 mm 0.05 in1.3 mm
03:30 AM 37.2°F2.9°C 37.2°F2.9°C 100% 2.6 mph NNE4.2 kmh NNE 5.9 mph9.5 kmh 29.52 in999.7 mb 0.00 in0.0 mm 0.00 in0.0 mm 0.05 in1.3 mm
03:40 AM 37.4°F3.0°C 37.4°F3.0°C 100% 2.0 mph ENE3.2 kmh ENE 3.4 mph5.5 kmh 29.53 in1000.0 mb 0.00 in0.0 mm 0.00 in0.0 mm 0.05 in1.3 mm
03:50 AM 37.6°F3.1°C 37.6°F3.1°C 100% 2.8 mph NE4.5 kmh NE 5.9 mph9.5 kmh 29.54 in1000.3 mb 0.00 in0.0 mm 0.00 in0.0 mm 0.05 in1.3 mm
04:00 AM 37.6°F3.1°C 37.6°F3.1°C 100% 3.2 mph ESE5.1 kmh ESE 5.9 mph9.5 kmh 29.54 in1000.3 mb 0.00 in0.0 mm 0.00 in0.0 mm 0.05 in1.3 mm
04:10 AM 37.6°F3.1°C 37.6°F3.1°C 100% 2.3 mph NE3.7 kmh NE 4.2 mph6.8 kmh 29.55 in1000.7 mb 0.00 in0.0 mm 0.00 in0.0 mm 0.05 in1.3 mm
04:20 AM 37.8°F3.2°C 37.8°F3.2°C 100% 1.6 mph NE2.6 kmh NE 3.4 mph5.5 kmh 29.54 in1000.3 mb 0.00 in0.0 mm 0.00 in0.0 mm 0.05 in1.3 mm
04:30 AM 37.9°F3.3°C 37.9°F3.3°C 100% 0.7 mph E1.1 kmh E 1.7 mph2.7 kmh 29.55 in1000.7 mb 0.00 in0.0 mm 0.00 in0.0 mm 0.05 in1.3 mm
04:40 AM 37.9°F3.3°C 37.9°F3.3°C 100% 2.1 mph NE3.4 kmh NE 4.2 mph6.8 kmh 29.55 in1000.7 mb 0.00 in0.0 mm 0.00 in0.0 mm 0.05 in1.3 mm
04:50 AM 37.9°F3.3°C 37.9°F3.3°C 100% 1.6 mph E2.6 kmh E 3.4 mph5.5 kmh 29.55 in1000.7 mb 0.00 in0.0 mm 0.00 in0.0 mm 0.05 in1.3 mm
05:00 AM 38.1°F3.4°C 38.1°F3.4°C 100% 1.6 mph E2.6 kmh E 3.4 mph5.5 kmh 29.56 in1001.0 mb 0.00 in0.0 mm 0.00 in0.0 mm 0.05 in1.3 mm
05:10 AM 38.1°F3.4°C 38.1°F3.4°C 100% 0.7 mph NE1.1 kmh NE 3.4 mph5.5 kmh 29.56 in1001.0 mb 0.00 in0.0 mm 0.00 in0.0 mm 0.05 in1.3 mm
05:20 AM 38.1°F3.4°C 38.1°F3.4°C 100% 1.3 mph E2.1 kmh E 2.5 mph4.0 kmh 29.57 in1001.4 mb 0.00 in0.0 mm 0.00 in0.0 mm 0.05 in1.3 mm
05:30 AM 38.1°F3.4°C 38.1°F3.4°C 100% 1.3 mph NNW2.1 kmh NNW 3.4 mph5.5 kmh 29.57 in1001.4 mb 0.00 in0.0 mm 0.00 in0.0 mm 0.05 in1.3 mm
05:40 AM 38.3°F3.5°C 38.3°F3.5°C 100% 2.0 mph SSW3.2 kmh SSW 3.4 mph5.5 kmh 29.57 in1001.4 mb 0.00 in0.0 mm 0.00 in0.0 mm 0.05 in1.3 mm
05:50 AM 38.3°F3.5°C 38.3°F3.5°C 100% 1.7 mph WSW2.7 kmh WSW 2.5 mph4.0 kmh 29.58 in1001.7 mb 0.00 in0.0 mm 0.00 in0.0 mm 0.05 in1.3 mm
06:00 AM 38.3°F3.5°C 38.3°F3.5°C 100% 1.4 mph NE2.3 kmh NE 3.4 mph5.5 kmh 29.58 in1001.7 mb 0.00 in0.0 mm 0.00 in0.0 mm 0.05 in1.3 mm
06:10 AM 38.1°F3.4°C 38.1°F3.4°C 100% 2.2 mph SE3.5 kmh SE 4.2 mph6.8 kmh 29.59 in1002.0 mb 0.01 in0.3 mm 0.06 in1.5 mm 0.06 in1.5 mm
06:20 AM 38.1°F3.4°C 38.1°F3.4°C 100% 1.3 mph E2.1 kmh E 4.2 mph6.8 kmh 29.59 in1002.0 mb 0.01 in0.3 mm 0.00 in0.0 mm 0.06 in1.5 mm
06:30 AM 38.1°F3.4°C 38.1°F3.4°C 100% 0.7 mph SE1.1 kmh SE 1.7 mph2.7 kmh 29.59 in1002.0 mb 0.01 in0.3 mm 0.00 in0.0 mm 0.06 in1.5 mm
06:40 AM 38.1°F3.4°C 38.1°F3.4°C 100% Calm Calm 0.7 mph1.1 kmh 29.59 in1002.0 mb 0.01 in0.3 mm 0.00 in0.0 mm 0.06 in1.5 mm
06:50 AM 38.1°F3.4°C 38.1°F3.4°C 100% 0.3 mph SW0.5 kmh SW 1.7 mph2.7 kmh 29.59 in1002.0 mb 0.01 in0.3 mm 0.00 in0.0 mm 0.06 in1.5 mm
07:00 AM 38.3°F3.5°C 38.3°F3.5°C 100% 0.1 mph W0.2 kmh W 0.7 mph1.1 kmh 29.60 in1002.4 mb 0.01 in0.3 mm 0.00 in0.0 mm 0.06 in1.5 mm
07:10 AM 38.3°F3.5°C 38.3°F3.5°C 100% 0.3 mph WSW0.5 kmh WSW 1.7 mph2.7 kmh 29.60 in1002.4 mb 0.00 in0.0 mm 0.00 in0.0 mm 0.06 in1.5 mm
07:20 AM 38.5°F3.6°C 38.5°F3.6°C 100% 0.1 mph NW0.2 kmh NW 1.7 mph2.7 kmh 29.61 in1002.7 mb 0.00 in0.0 mm 0.00 in0.0 mm 0.06 in1.5 mm
07:30 AM 38.5°F3.6°C 38.5°F3.6°C 100% 0.2 mph WSW0.3 kmh WSW 1.7 mph2.7 kmh 29.61 in1002.7 mb 0.00 in0.0 mm 0.00 in0.0 mm 0.06 in1.5 mm
07:40 AM 38.5°F3.6°C 38.5°F3.6°C 100% 0.6 mph SW1.0 kmh SW 1.7 mph2.7 kmh 29.62 in1003.0 mb 0.00 in0.0 mm 0.00 in0.0 mm 0.06 in1.5 mm
07:50 AM 38.5°F3.6°C 38.5°F3.6°C 100% 1.0 mph SSE1.6 kmh SSE 2.5 mph4.0 kmh 29.62 in1003.0 mb 0.00 in0.0 mm 0.00 in0.0 mm 0.06 in1.5 mm
08:00 AM 38.5°F3.6°C 38.5°F3.6°C 100% 0.9 mph S1.4 kmh S 1.7 mph2.7 kmh 29.63 in1003.4 mb 0.00 in0.0 mm 0.00 in0.0 mm 0.06 in1.5 mm
08:10 AM 38.7°F3.7°C 38.7°F3.7°C 100% 1.1 mph SSW1.8 kmh SSW 1.7 mph2.7 kmh 29.63 in1003.4 mb 0.00 in0.0 mm 0.00 in0.0 mm 0.06 in1.5 mm
08:20 AM 38.8°F3.8°C 38.8°F3.8°C 100% 0.6 mph S1.0 kmh S 1.7 mph2.7 kmh 29.64 in1003.7 mb 0.00 in0.0 mm 0.00 in0.0 mm 0.06 in1.5 mm
08:30 AM 39.0°F3.9°C 39.0°F3.9°C 100% 0.8 mph SW1.3 kmh SW 2.5 mph4.0 kmh 29.65 in1004.1 mb 0.00 in0.0 mm 0.00 in0.0 mm 0.06 in1.5 mm
08:40 AM 39.2°F4.0°C 39.2°F4.0°C 100% 0.8 mph SW1.3 kmh SW 2.5 mph4.0 kmh 29.65 in1004.1 mb 0.00 in0.0 mm 0.00 in0.0 mm 0.06 in1.5 mm
08:50 AM 39.4°F4.1°C 39.4°F4.1°C 100% 1.1 mph S1.8 kmh S 2.5 mph4.0 kmh 29.65 in1004.1 mb 0.00 in0.0 mm 0.00 in0.0 mm 0.06 in1.5 mm
09:00 AM 39.6°F4.2°C 39.6°F4.2°C 100% 1.0 mph E1.6 kmh E 2.5 mph4.0 kmh 29.65 in1004.1 mb 0.00 in0.0 mm 0.00 in0.0 mm 0.06 in1.5 mm
09:10 AM 39.9°F4.4°C 39.9°F4.4°C 100% 0.5 mph SE0.8 kmh SE 2.5 mph4.0 kmh 29.66 in1004.4 mb 0.00 in0.0 mm 0.00 in0.0 mm 0.06 in1.5 mm
09:20 AM 39.9°F4.4°C 39.9°F4.4°C 100% 1.7 mph NW2.7 kmh NW 3.4 mph5.5 kmh 29.66 in1004.4 mb 0.00 in0.0 mm 0.00 in0.0 mm 0.06 in1.5 mm
09:30 AM 40.1°F4.5°C 40.1°F4.5°C 100% 2.3 mph SSW3.7 kmh SSW 4.2 mph6.8 kmh 29.67 in1004.7 mb 0.00 in0.0 mm 0.00 in0.0 mm 0.06 in1.5 mm
09:40 AM 40.3°F4.6°C 40.3°F4.6°C 100% 1.7 mph WSW2.7 kmh WSW 3.4 mph5.5 kmh 29.67 in1004.7 mb 0.00 in0.0 mm 0.00 in0.0 mm 0.06 in1.5 mm
09:50 AM 41.0°F5.0°C 41.0°F5.0°C 100% 2.1 mph SW3.4 kmh SW 3.4 mph5.5 kmh 29.67 in1004.7 mb 0.00 in0.0 mm 0.00 in0.0 mm 0.06 in1.5 mm
10:00 AM 41.7°F5.4°C 41.5°F5.3°C 99% 2.8 mph ESE4.5 kmh ESE 4.9 mph7.9 kmh 29.68 in1005.1 mb 0.00 in0.0 mm 0.00 in0.0 mm 0.06 in1.5 mm
10:10 AM 41.9°F5.5°C 40.8°F4.9°C 96% 2.6 mph N4.2 kmh N 8.4 mph13.5 kmh 29.68 in1005.1 mb 0.00 in0.0 mm 0.00 in0.0 mm 0.06 in1.5 mm
10:20 AM 41.9°F5.5°C 40.3°F4.6°C 94% 2.8 mph WSW4.5 kmh WSW 4.9 mph7.9 kmh 29.68 in1005.1 mb 0.00 in0.0 mm 0.00 in0.0 mm 0.06 in1.5 mm
10:30 AM 41.9°F5.5°C 39.7°F4.3°C 92% 2.7 mph NE4.3 kmh NE 3.4 mph5.5 kmh 29.69 in1005.4 mb 0.00 in0.0 mm 0.00 in0.0 mm 0.06 in1.5 mm
10:40 AM 41.7°F5.4°C 38.4°F3.6°C 88% 2.9 mph NE4.7 kmh NE 4.2 mph6.8 kmh 29.69 in1005.4 mb 0.00 in0.0 mm 0.00 in0.0 mm 0.06 in1.5 mm
10:50 AM 41.7°F5.4°C 38.4°F3.6°C 88% 3.0 mph NE4.8 kmh NE 4.2 mph6.8 kmh 29.70 in1005.8 mb 0.00 in0.0 mm 0.00 in0.0 mm 0.06 in1.5 mm
11:00 AM 41.9°F5.5°C 38.9°F3.8°C 89% 2.2 mph E3.5 kmh E 3.4 mph5.5 kmh 29.70 in1005.8 mb 0.00 in0.0 mm 0.00 in0.0 mm 0.06 in1.5 mm
11:10 AM 42.6°F5.9°C 39.6°F4.2°C 89% 1.4 mph NNE2.3 kmh NNE 2.5 mph4.0 kmh 29.71 in1006.1 mb 0.00 in0.0 mm 0.00 in0.0 mm 0.06 in1.5 mm
11:20 AM 43.2°F6.2°C 38.3°F3.5°C 83% 2.8 mph SE4.5 kmh SE 4.2 mph6.8 kmh 29.70 in1005.8 mb 0.00 in0.0 mm 0.00 in0.0 mm 0.06 in1.5 mm
11:30 AM 43.2°F6.2°C 38.3°F3.5°C 83% 2.3 mph ENE3.7 kmh ENE 4.9 mph7.9 kmh 29.71 in1006.1 mb 0.00 in0.0 mm 0.00 in0.0 mm 0.06 in1.5 mm
11:40 AM 43.9°F6.6°C 38.7°F3.7°C 82% 3.1 mph NE5.0 kmh NE 4.2 mph6.8 kmh 29.71 in1006.1 mb 0.00 in0.0 mm 0.00 in0.0 mm 0.06 in1.5 mm
11:50 AM 45.0°F7.2°C 38.2°F3.4°C 77% 2.9 mph N4.7 kmh N 4.2 mph6.8 kmh 29.71 in1006.1 mb 0.00 in0.0 mm 0.00 in0.0 mm 0.06 in1.5 mm
12:00 PM 45.0°F7.2°C 38.2°F3.4°C 77% 2.5 mph E4.0 kmh E 4.2 mph6.8 kmh 29.71 in1006.1 mb 0.00 in0.0 mm 0.00 in0.0 mm 0.06 in1.5 mm
12:10 PM 45.1°F7.3°C 38.0°F3.3°C 76% 2.6 mph N4.2 kmh N 4.2 mph6.8 kmh 29.72 in1006.4 mb 0.00 in0.0 mm 0.00 in0.0 mm 0.06 in1.5 mm
12:20 PM 45.9°F7.7°C 38.4°F3.6°C 75% 2.9 mph SSW4.7 kmh SSW 5.9 mph9.5 kmh 29.72 in1006.4 mb 0.00 in0.0 mm 0.00 in0.0 mm 0.06 in1.5 mm
12:30 PM 47.7°F8.7°C 39.8°F4.3°C 74% 2.2 mph N3.5 kmh N 4.9 mph7.9 kmh 29.72 in1006.4 mb 0.00 in0.0 mm 0.00 in0.0 mm 0.06 in1.5 mm
12:40 PM 47.3°F8.5°C 38.7°F3.7°C 72% 3.4 mph W5.5 kmh W 4.9 mph7.9 kmh 29.73 in1006.8 mb 0.00 in0.0 mm 0.00 in0.0 mm 0.06 in1.5 mm
12:50 PM 48.2°F9.0°C 39.2°F4.0°C 71% 3.7 mph NE6.0 kmh NE 5.9 mph9.5 kmh 29.72 in1006.4 mb 0.00 in0.0 mm 0.00 in0.0 mm 0.06 in1.5 mm
01:00 PM 48.9°F9.4°C 38.1°F3.4°C 66% 4.2 mph NNE6.8 kmh NNE 6.6 mph10.6 kmh 29.73 in1006.8 mb 0.00 in0.0 mm 0.00 in0.0 mm 0.06 in1.5 mm
01:10 PM 48.4°F9.1°C 37.5°F3.1°C 66% 5.0 mph SW8.0 kmh SW 4.9 mph7.9 kmh 29.73 in1006.8 mb 0.00 in0.0 mm 0.00 in0.0 mm 0.06 in1.5 mm
01:20 PM 48.2°F9.0°C 38.1°F3.4°C 68% 3.2 mph NE5.1 kmh NE 4.9 mph7.9 kmh 29.73 in1006.8 mb 0.00 in0.0 mm 0.00 in0.0 mm 0.06 in1.5 mm
01:30 PM 48.4°F9.1°C 37.9°F3.3°C 67% 3.4 mph NE5.5 kmh NE 4.2 mph6.8 kmh 29.73 in1006.8 mb 0.00 in0.0 mm 0.00 in0.0 mm 0.06 in1.5 mm
01:40 PM 46.6°F8.1°C 37.3°F2.9°C 70% 2.4 mph N3.9 kmh N 4.2 mph6.8 kmh 29.73 in1006.8 mb 0.00 in0.0 mm 0.00 in0.0 mm 0.06 in1.5 mm
01:50 PM 46.2°F7.9°C 37.7°F3.2°C 72% 1.2 mph N1.9 kmh N 2.5 mph4.0 kmh 29.73 in1006.8 mb 0.00 in0.0 mm 0.00 in0.0 mm 0.06 in1.5 mm
02:00 PM 45.7°F7.6°C 37.2°F2.9°C 72% 1.4 mph WNW2.3 kmh WNW 3.4 mph5.5 kmh 29.73 in1006.8 mb 0.00 in0.0 mm 0.00 in0.0 mm 0.06 in1.5 mm
02:10 PM 45.7°F7.6°C 37.2°F2.9°C 72% 1.5 mph N2.4 kmh N 2.5 mph4.0 kmh 29.74 in1007.1 mb 0.00 in0.0 mm 0.00 in0.0 mm 0.06 in1.5 mm
02:20 PM 45.7°F7.6°C 37.2°F2.9°C 72% 1.2 mph W1.9 kmh W 2.5 mph4.0 kmh 29.74 in1007.1 mb 0.00 in0.0 mm 0.00 in0.0 mm 0.06 in1.5 mm
02:30 PM 45.3°F7.4°C 36.8°F2.7°C 72% 2.5 mph S4.0 kmh S 4.9 mph7.9 kmh 29.74 in1007.1 mb 0.00 in0.0 mm 0.00 in0.0 mm 0.06 in1.5 mm
02:40 PM 45.0°F7.2°C 36.8°F2.7°C 73% 1.7 mph SE2.7 kmh SE 3.4 mph5.5 kmh 29.74 in1007.1 mb 0.00 in0.0 mm 0.00 in0.0 mm 0.06 in1.5 mm
02:50 PM 44.6°F7.0°C 36.5°F2.5°C 73% 2.8 mph SSE4.5 kmh SSE 5.9 mph9.5 kmh 29.75 in1007.5 mb 0.00 in0.0 mm 0.00 in0.0 mm 0.06 in1.5 mm
03:00 PM 44.8°F7.1°C 37.3°F2.9°C 75% 2.2 mph S3.5 kmh S 3.4 mph5.5 kmh 29.75 in1007.5 mb 0.00 in0.0 mm 0.00 in0.0 mm 0.06 in1.5 mm
03:10 PM 45.0°F7.2°C 37.5°F3.1°C 75% 2.1 mph ESE3.4 kmh ESE 2.5 mph4.0 kmh 29.75 in1007.5 mb 0.00 in0.0 mm 0.00 in0.0 mm 0.06 in1.5 mm
03:20 PM 44.8°F7.1°C 37.3°F2.9°C 75% 1.5 mph SE2.4 kmh SE 4.9 mph7.9 kmh 29.75 in1007.5 mb 0.00 in0.0 mm 0.00 in0.0 mm 0.06 in1.5 mm
03:30 PM 44.6°F7.0°C 37.2°F2.9°C 75% 3.1 mph SSE5.0 kmh SSE 4.9 mph7.9 kmh 29.75 in1007.5 mb 0.00 in0.0 mm 0.00 in0.0 mm 0.06 in1.5 mm
03:40 PM 44.6°F7.0°C 37.2°F2.9°C 75% 2.2 mph S3.5 kmh S 4.9 mph7.9 kmh 29.75 in1007.5 mb 0.00 in0.0 mm 0.00 in0.0 mm 0.06 in1.5 mm
03:50 PM 44.4°F6.9°C 36.6°F2.6°C 74% 3.0 mph SSE4.8 kmh SSE 4.9 mph7.9 kmh 29.75 in1007.5 mb 0.00 in0.0 mm 0.00 in0.0 mm 0.06 in1.5 mm
04:00 PM 44.1°F6.7°C 36.6°F2.6°C 75% 3.3 mph SE5.3 kmh SE 4.9 mph7.9 kmh 29.75 in1007.5 mb 0.00 in0.0 mm 0.00 in0.0 mm 0.06 in1.5 mm
04:10 PM 44.1°F6.7°C 37.0°F2.8°C 76% 1.4 mph SSE2.3 kmh SSE 4.2 mph6.8 kmh 29.76 in1007.8 mb 0.00 in0.0 mm 0.00 in0.0 mm 0.06 in1.5 mm
04:20 PM 43.9°F6.6°C 36.5°F2.5°C 75% 2.7 mph S4.3 kmh S 4.9 mph7.9 kmh 29.76 in1007.8 mb 0.00 in0.0 mm 0.00 in0.0 mm 0.06 in1.5 mm
04:30 PM 43.5°F6.4°C 36.1°F2.3°C 75% 1.4 mph E2.3 kmh E 4.2 mph6.8 kmh 29.76 in1007.8 mb 0.00 in0.0 mm 0.00 in0.0 mm 0.06 in1.5 mm
04:40 PM 43.3°F6.3°C 36.3°F2.4°C 76% 1.3 mph S2.1 kmh S 3.4 mph5.5 kmh 29.76 in1007.8 mb 0.00 in0.0 mm 0.00 in0.0 mm 0.06 in1.5 mm
04:50 PM 42.8°F6.0°C 35.8°F2.1°C 76% 2.0 mph SSE3.2 kmh SSE 2.5 mph4.0 kmh 29.76 in1007.8 mb 0.00 in0.0 mm 0.00 in0.0 mm 0.06 in1.5 mm
05:00 PM 42.4°F5.8°C 37.0°F2.8°C 81% 2.2 mph SE3.5 kmh SE 3.4 mph5.5 kmh 29.76 in1007.8 mb 0.00 in0.0 mm 0.00 in0.0 mm 0.06 in1.5 mm
05:10 PM 42.3°F5.7°C 37.2°F2.9°C 82% 2.1 mph NE3.4 kmh NE 3.4 mph5.5 kmh 29.76 in1007.8 mb 0.00 in0.0 mm 0.00 in0.0 mm 0.06 in1.5 mm
05:20 PM 42.3°F5.7°C 37.2°F2.9°C 82% 0.6 mph SSE1.0 kmh SSE 1.7 mph2.7 kmh 29.76 in1007.8 mb 0.00 in0.0 mm 0.00 in0.0 mm 0.06 in1.5 mm
05:30 PM 42.4°F5.8°C 37.6°F3.1°C 83% 0.3 mph S0.5 kmh S 1.7 mph2.7 kmh 29.76 in1007.8 mb 0.00 in0.0 mm 0.00 in0.0 mm 0.06 in1.5 mm
05:40 PM 42.3°F5.7°C 37.5°F3.1°C 83% 1.3 mph SE2.1 kmh SE 2.5 mph4.0 kmh 29.77 in1008.1 mb 0.00 in0.0 mm 0.00 in0.0 mm 0.06 in1.5 mm
05:50 PM 42.1°F5.6°C 37.3°F2.9°C 83% 1.0 mph S1.6 kmh S 2.5 mph4.0 kmh 29.77 in1008.1 mb 0.00 in0.0 mm 0.00 in0.0 mm 0.06 in1.5 mm
06:00 PM 41.9°F5.5°C 37.1°F2.8°C 83% 0.9 mph SE1.4 kmh SE 2.5 mph4.0 kmh 29.77 in1008.1 mb 0.00 in0.0 mm 0.00 in0.0 mm 0.06 in1.5 mm
06:10 PM 41.2°F5.1°C 36.4°F2.4°C 83% 0.2 mph SE0.3 kmh SE 1.7 mph2.7 kmh 29.78 in1008.5 mb 0.00 in0.0 mm 0.00 in0.0 mm 0.06 in1.5 mm
06:20 PM 40.5°F4.7°C 36.0°F2.2°C 84% Calm Calm 0.7 mph1.1 kmh 29.78 in1008.5 mb 0.00 in0.0 mm 0.00 in0.0 mm 0.06 in1.5 mm
06:30 PM 39.7°F4.3°C 35.6°F2.0°C 85% Calm Calm 0.7 mph1.1 kmh 29.78 in1008.5 mb 0.00 in0.0 mm 0.00 in0.0 mm 0.06 in1.5 mm
06:40 PM 39.2°F4.0°C 35.1°F1.7°C 85% 0.1 mph SE0.2 kmh SE 1.7 mph2.7 kmh 29.78 in1008.5 mb 0.00 in0.0 mm 0.00 in0.0 mm 0.06 in1.5 mm
06:50 PM 38.7°F3.7°C 34.8°F1.6°C 86% 0.2 mph S0.3 kmh S 1.7 mph2.7 kmh 29.78 in1008.5 mb 0.00 in0.0 mm 0.00 in0.0 mm 0.06 in1.5 mm
07:00 PM 38.1°F3.4°C 34.6°F1.4°C 87% Calm Calm 0.7 mph1.1 kmh 29.78 in1008.5 mb 0.00 in0.0 mm 0.00 in0.0 mm 0.06 in1.5 mm
07:10 PM 37.6°F3.1°C 34.1°F1.2°C 87% Calm Calm 0.7 mph1.1 kmh 29.78 in1008.5 mb 0.00 in0.0 mm 0.00 in0.0 mm 0.06 in1.5 mm
07:20 PM 37.6°F3.1°C 34.6°F1.4°C 89% 0.7 mph S1.1 kmh S 2.5 mph4.0 kmh 29.78 in1008.5 mb 0.00 in0.0 mm 0.00 in0.0 mm 0.06 in1.5 mm
07:30 PM 38.1°F3.4°C 35.4°F1.9°C 90% 1.6 mph SSE2.6 kmh SSE 2.5 mph4.0 kmh 29.78 in1008.5 mb 0.00 in0.0 mm 0.00 in0.0 mm 0.06 in1.5 mm
07:40 PM 38.3°F3.5°C 35.9°F2.2°C 91% 1.4 mph SSE2.3 kmh SSE 2.5 mph4.0 kmh 29.78 in1008.5 mb 0.00 in0.0 mm 0.00 in0.0 mm 0.06 in1.5 mm
07:50 PM 38.7°F3.7°C 36.3°F2.4°C 91% 2.1 mph S3.4 kmh S 2.5 mph4.0 kmh 29.78 in1008.5 mb 0.00 in0.0 mm 0.00 in0.0 mm 0.06 in1.5 mm
08:00 PM 38.8°F3.8°C 36.4°F2.4°C 91% 2.6 mph S4.2 kmh S 4.2 mph6.8 kmh 29.78 in1008.5 mb 0.00 in0.0 mm 0.00 in0.0 mm 0.06 in1.5 mm
08:10 PM 39.0°F3.9°C 36.6°F2.6°C 91% 3.2 mph S5.1 kmh S 3.4 mph5.5 kmh 29.78 in1008.5 mb 0.00 in0.0 mm 0.00 in0.0 mm 0.06 in1.5 mm
08:20 PM 39.2°F4.0°C 36.8°F2.7°C 91% 1.9 mph SE3.1 kmh SE 2.5 mph4.0 kmh 29.79 in1008.8 mb 0.00 in0.0 mm 0.00 in0.0 mm 0.06 in1.5 mm
08:30 PM 39.2°F4.0°C 36.8°F2.7°C 91% 1.5 mph SSE2.4 kmh SSE 3.4 mph5.5 kmh 29.78 in1008.5 mb 0.00 in0.0 mm 0.00 in0.0 mm 0.06 in1.5 mm
08:40 PM 39.4°F4.1°C 37.0°F2.8°C 91% 1.0 mph SE1.6 kmh SE 2.5 mph4.0 kmh 29.78 in1008.5 mb 0.00 in0.0 mm 0.00 in0.0 mm 0.06 in1.5 mm
08:50 PM 39.9°F4.4°C 37.8°F3.2°C 92% 2.7 mph SSE4.3 kmh SSE 4.2 mph6.8 kmh 29.78 in1008.5 mb 0.00 in0.0 mm 0.00 in0.0 mm 0.06 in1.5 mm
09:00 PM 40.5°F4.7°C 38.3°F3.5°C 92% 5.0 mph SSE8.0 kmh SSE 4.9 mph7.9 kmh 29.78 in1008.5 mb 0.00 in0.0 mm 0.00 in0.0 mm 0.06 in1.5 mm
09:10 PM 41.0°F5.0°C 38.9°F3.8°C 92% 4.1 mph NE6.6 kmh NE 4.9 mph7.9 kmh 29.78 in1008.5 mb 0.00 in0.0 mm 0.00 in0.0 mm 0.06 in1.5 mm
09:20 PM 41.2°F5.1°C 38.8°F3.8°C 91% 4.1 mph SSE6.6 kmh SSE 4.9 mph7.9 kmh 29.79 in1008.8 mb 0.00 in0.0 mm 0.00 in0.0 mm 0.06 in1.5 mm
09:30 PM 41.4°F5.2°C 38.6°F3.7°C 90% 4.8 mph S7.7 kmh S 6.6 mph10.6 kmh 29.79 in1008.8 mb 0.00 in0.0 mm 0.00 in0.0 mm 0.06 in1.5 mm
09:40 PM 41.2°F5.1°C 38.2°F3.4°C 89% 6.2 mph SSE10.0 kmh SSE 8.4 mph13.5 kmh 29.78 in1008.5 mb 0.00 in0.0 mm 0.00 in0.0 mm 0.06 in1.5 mm
09:50 PM 41.0°F5.0°C 38.0°F3.3°C 89% 6.4 mph SSE10.3 kmh SSE 7.6 mph12.2 kmh 29.78 in1008.5 mb 0.00 in0.0 mm 0.00 in0.0 mm 0.06 in1.5 mm
10:00 PM 40.8°F4.9°C 38.1°F3.4°C 90% 7.0 mph SSE11.3 kmh SSE 8.4 mph13.5 kmh 29.79 in1008.8 mb 0.00 in0.0 mm 0.00 in0.0 mm 0.06 in1.5 mm
10:10 PM 40.8°F4.9°C 38.4°F3.6°C 91% 7.2 mph SSE11.6 kmh SSE 8.4 mph13.5 kmh 29.78 in1008.5 mb 0.00 in0.0 mm 0.00 in0.0 mm 0.06 in1.5 mm
10:20 PM 41.0°F5.0°C 38.6°F3.7°C 91% 7.6 mph S12.2 kmh S 8.4 mph13.5 kmh 29.78 in1008.5 mb 0.00 in0.0 mm 0.00 in0.0 mm 0.06 in1.5 mm
10:30 PM 41.0°F5.0°C 38.3°F3.5°C 90% 5.7 mph SE9.2 kmh SE 6.6 mph10.6 kmh 29.78 in1008.5 mb 0.00 in0.0 mm 0.00 in0.0 mm 0.06 in1.5 mm
10:40 PM 41.0°F5.0°C 38.0°F3.3°C 89% 4.7 mph SSE7.6 kmh SSE 4.9 mph7.9 kmh 29.78 in1008.5 mb 0.00 in0.0 mm 0.00 in0.0 mm 0.06 in1.5 mm
10:50 PM 40.6°F4.8°C 37.7°F3.2°C 89% 3.8 mph SSE6.1 kmh SSE 5.9 mph9.5 kmh 29.78 in1008.5 mb 0.00 in0.0 mm 0.00 in0.0 mm 0.06 in1.5 mm
11:00 PM 40.5°F4.7°C 37.5°F3.1°C 89% 5.6 mph SSE9.0 kmh SSE 6.6 mph10.6 kmh 29.78 in1008.5 mb 0.00 in0.0 mm 0.00 in0.0 mm 0.06 in1.5 mm
11:10 PM 40.5°F4.7°C 37.5°F3.1°C 89% 6.7 mph S10.8 kmh S 5.9 mph9.5 kmh 29.78 in1008.5 mb 0.00 in0.0 mm 0.00 in0.0 mm 0.06 in1.5 mm
11:20 PM 40.1°F4.5°C 37.1°F2.8°C 89% 6.4 mph SE10.3 kmh SE 8.4 mph13.5 kmh 29.78 in1008.5 mb 0.00 in0.0 mm 0.00 in0.0 mm 0.06 in1.5 mm
11:30 PM 40.1°F4.5°C 37.1°F2.8°C 89% 6.9 mph SSE11.1 kmh SSE 7.6 mph12.2 kmh 29.78 in1008.5 mb 0.00 in0.0 mm 0.00 in0.0 mm 0.06 in1.5 mm
11:40 PM 40.1°F4.5°C 37.4°F3.0°C 90% 8.4 mph SSE13.5 kmh SSE 10.1 mph16.3 kmh 29.78 in1008.5 mb 0.00 in0.0 mm 0.00 in0.0 mm 0.06 in1.5 mm
11:50 PM 39.9°F4.4°C 37.2°F2.9°C 90% 8.5 mph S13.7 kmh S 8.4 mph13.5 kmh 29.78 in1008.5 mb 0.00 in0.0 mm 0.00 in0.0 mm 0.06 in1.5 mm